Skip Navigation Links
NOAA logo - Click to go to the NOAA homepage
NOAA's National Weather Service
Alaska Aviation Weather Unit
  NWS logo - Click to go to the NWS homepage
Left Navbar Graphic     22 AKDT = 06 GMT

   
NOAA is celebrating 200 years of science, service, and stewardship. Visit the NOAA 200th celebration Web site to learn more.
USA.gov is the U.S. Government's official Web portal to all Federal, state and local government Web resources and services.
Facebook
NWS on Facebook

Important Change Regarding the AAWU Web Presence

 

Over the last several months, the AAWU has been working to navigate its webpages to a nationally supported server. Security, as well as other needs, have necessitated the change.  In the process, we have made an effort to enhance the functionality of our website, as well as some of our products. As of June 20, 2017, aawu.arh.noaa.gov will be discontinued. The new AAWU web address is weather.gov/aawu. It is now live and will run in-parallel with the old site until it is discontinued. Please send any feedback or questions regarding the new webpages to nws.ar.aawu.webauthors@noaa.gov.  Thank you for your patience during this time of transition.
AAWU Home :: Display TAF Add Bookmark
METAR PAGL 280016Z AUTO 19011KT 10SM CLR 06/00 A2997 RMK AO1=

METAR PAGL 280036Z AUTO 19012KT 10SM CLR 06/00 A2997 RMK AO1=

METAR PAGL 280056Z AUTO 19013KT 10SM CLR 07/01 A2996 RMK AO1=

METAR PAGL 280116Z AUTO 19011KT 10SM CLR 06/M01 A2996 RMK AO1=

METAR PAGL 280136Z AUTO 19010KT 10SM CLR 07/M01 A2996 RMK AO1=

METAR PAGL 280156Z AUTO 19011KT 10SM CLR 07/M01 A2996 RMK AO1=

METAR PAGL 280216Z AUTO 19010KT 10SM CLR 07/M01 A2996 RMK AO1=

METAR PAGL 280236Z AUTO 19010KT 10SM SCT110 06/M01 A2996 RMK AO1=

METAR PAGL 280256Z AUTO 19009KT 10SM FEW110 07/M01 A2996 RMK AO1
     57003=

METAR PAGL 280316Z AUTO 19009KT 10SM CLR 07/M01 A2996 RMK AO1=

METAR PAGL 280336Z AUTO 19008KT 10SM CLR 07/M01 A2996 RMK AO1=

METAR PAGL 280356Z AUTO 20008KT 10SM CLR 07/M01 A2995 RMK AO1=

METAR PAGL 280416Z AUTO 19007KT 10SM CLR 07/M01 A2996 RMK AO1=

METAR PAGL 280436Z AUTO 19007KT 10SM CLR 07/M01 A2996 RMK AO1=

METAR PAGL 280456Z AUTO 19007KT 10SM CLR 06/M01 A2996 RMK AO1=

METAR PAGL 280516Z AUTO 20006KT 10SM CLR 06/M01 A2996 RMK AO1=

METAR PAGL 280536Z AUTO 20004KT 10SM CLR 06/M01 A2996 RMK AO1=

METAR PAGL 280556Z AUTO 19003KT 10SM CLR 06/M01 A2996 RMK AO1 10070
     20060 54000=

METAR PAGL 280616Z AUTO 20005KT 10SM CLR 06/M01 A2996 RMK AO1=


NOAA's National Weather Service
Alaska Aviation Weather Unit
6930 Sand Lake Road
Anchorage, AK 99502-1845
Disclaimer
Credits
Glossary
Privacy Policy
About Us
Career Opportunities
Contact AAWU Internet Services Site last modified: April, 17th 2012